sensor_id;sensor_type;location;lat;lon;timestamp;temperature;humidity
68691;DHT22;55675;49.588;8.640;2023-02-27T00:02:23;2.10;63.50
68691;DHT22;55675;49.588;8.640;2023-02-27T00:04:49;2.10;63.80
68691;DHT22;55675;49.588;8.640;2023-02-27T00:07:15;2.00;63.80
68691;DHT22;55675;49.588;8.640;2023-02-27T00:09:40;2.00;63.90
68691;DHT22;55675;49.588;8.640;2023-02-27T00:12:06;2.00;63.80
68691;DHT22;55675;49.588;8.640;2023-02-27T00:14:32;2.00;64.00
68691;DHT22;55675;49.588;8.640;2023-02-27T00:16:58;2.00;64.00
68691;DHT22;55675;49.588;8.640;2023-02-27T00:19:23;2.00;64.20
68691;DHT22;55675;49.588;8.640;2023-02-27T00:21:49;2.00;64.60
68691;DHT22;55675;49.588;8.640;2023-02-27T00:24:14;2.00;64.20
68691;DHT22;55675;49.588;8.640;2023-02-27T00:26:40;2.00;64.00
68691;DHT22;55675;49.588;8.640;2023-02-27T00:29:05;2.00;64.40
68691;DHT22;55675;49.588;8.640;2023-02-27T00:31:31;1.90;64.30
68691;DHT22;55675;49.588;8.640;2023-02-27T00:33:56;1.90;64.40
68691;DHT22;55675;49.588;8.640;2023-02-27T00:36:22;1.90;64.40
68691;DHT22;55675;49.588;8.640;2023-02-27T00:38:47;1.90;64.40
68691;DHT22;55675;49.588;8.640;2023-02-27T00:41:13;1.90;64.60
68691;DHT22;55675;49.588;8.640;2023-02-27T00:43:38;1.90;64.40
68691;DHT22;55675;49.588;8.640;2023-02-27T00:46:04;1.90;64.40
68691;DHT22;55675;49.588;8.640;2023-02-27T00:48:29;1.90;64.50
68691;DHT22;55675;49.588;8.640;2023-02-27T00:50:55;1.90;64.40
68691;DHT22;55675;49.588;8.640;2023-02-27T00:53:20;1.90;64.50
68691;DHT22;55675;49.588;8.640;2023-02-27T00:55:46;1.90;64.50
68691;DHT22;55675;49.588;8.640;2023-02-27T00:58:11;1.90;64.70
68691;DHT22;55675;49.588;8.640;2023-02-27T01:00:37;1.80;64.70
68691;DHT22;55675;49.588;8.640;2023-02-27T01:03:02;1.80;64.50
68691;DHT22;55675;49.588;8.640;2023-02-27T01:05:28;1.80;64.50
68691;DHT22;55675;49.588;8.640;2023-02-27T01:07:53;1.80;64.60
68691;DHT22;55675;49.588;8.640;2023-02-27T01:10:19;1.80;64.70
68691;DHT22;55675;49.588;8.640;2023-02-27T01:12:44;1.80;64.60
68691;DHT22;55675;49.588;8.640;2023-02-27T01:15:10;1.80;64.50
68691;DHT22;55675;49.588;8.640;2023-02-27T01:17:36;1.80;64.50
68691;DHT22;55675;49.588;8.640;2023-02-27T01:20:02;1.80;64.50
68691;DHT22;55675;49.588;8.640;2023-02-27T01:22:28;1.80;64.60
68691;DHT22;55675;49.588;8.640;2023-02-27T01:24:53;1.80;64.60
68691;DHT22;55675;49.588;8.640;2023-02-27T01:27:19;1.80;64.50
68691;DHT22;55675;49.588;8.640;2023-02-27T01:29:44;1.80;65.20
68691;DHT22;55675;49.588;8.640;2023-02-27T01:32:09;1.80;64.60
68691;DHT22;55675;49.588;8.640;2023-02-27T01:34:35;1.80;64.70
68691;DHT22;55675;49.588;8.640;2023-02-27T01:37:00;1.70;64.80
68691;DHT22;55675;49.588;8.640;2023-02-27T01:39:26;1.70;64.60
68691;DHT22;55675;49.588;8.640;2023-02-27T01:41:52;1.70;64.80
68691;DHT22;55675;49.588;8.640;2023-02-27T01:44:17;1.70;64.70
68691;DHT22;55675;49.588;8.640;2023-02-27T01:46:43;1.70;64.80
68691;DHT22;55675;49.588;8.640;2023-02-27T01:49:23;1.70;64.80
68691;DHT22;55675;49.588;8.640;2023-02-27T01:54:16;1.60;64.70
68691;DHT22;55675;49.588;8.640;2023-02-27T01:56:43;1.60;64.80
68691;DHT22;55675;49.588;8.640;2023-02-27T01:59:09;1.60;64.80
68691;DHT22;55675;49.588;8.640;2023-02-27T02:01:35;1.60;64.70
68691;DHT22;55675;49.588;8.640;2023-02-27T02:04:04;1.60;64.70
68691;DHT22;55675;49.588;8.640;2023-02-27T02:06:31;1.60;64.70
68691;DHT22;55675;49.588;8.640;2023-02-27T02:08:58;1.60;64.80
68691;DHT22;55675;49.588;8.640;2023-02-27T02:11:25;1.60;64.80
68691;DHT22;55675;49.588;8.640;2023-02-27T02:13:54;1.60;64.90
68691;DHT22;55675;49.588;8.640;2023-02-27T02:21:56;1.50;64.50
68691;DHT22;55675;49.588;8.640;2023-02-27T02:26:57;1.50;64.70
68691;DHT22;55675;49.588;8.640;2023-02-27T02:29:42;1.50;64.80
68691;DHT22;55675;49.588;8.640;2023-02-27T02:37:35;1.50;64.70
68691;DHT22;55675;49.588;8.640;2023-02-27T02:42:56;1.40;64.70
68691;DHT22;55675;49.588;8.640;2023-02-27T02:45:32;1.40;64.60
68691;DHT22;55675;49.588;8.640;2023-02-27T02:48:02;1.40;64.50
68691;DHT22;55675;49.588;8.640;2023-02-27T02:53:03;1.40;64.50
68691;DHT22;55675;49.588;8.640;2023-02-27T02:55:34;1.40;64.50
68691;DHT22;55675;49.588;8.640;2023-02-27T02:58:10;1.40;64.60
68691;DHT22;55675;49.588;8.640;2023-02-27T03:00:40;1.40;64.90
68691;DHT22;55675;49.588;8.640;2023-02-27T03:03:10;1.40;64.80
68691;DHT22;55675;49.588;8.640;2023-02-27T03:05:38;1.40;64.80
68691;DHT22;55675;49.588;8.640;2023-02-27T03:08:07;1.40;64.70
68691;DHT22;55675;49.588;8.640;2023-02-27T03:10:34;1.40;64.80
68691;DHT22;55675;49.588;8.640;2023-02-27T03:13:03;1.30;65.00
68691;DHT22;55675;49.588;8.640;2023-02-27T03:15:32;1.30;65.00
68691;DHT22;55675;49.588;8.640;2023-02-27T03:18:01;1.30;64.90
68691;DHT22;55675;49.588;8.640;2023-02-27T03:20:30;1.30;65.00
68691;DHT22;55675;49.588;8.640;2023-02-27T03:22:58;1.30;65.00
68691;DHT22;55675;49.588;8.640;2023-02-27T03:25:29;1.30;65.00
68691;DHT22;55675;49.588;8.640;2023-02-27T03:27:59;1.20;65.10
68691;DHT22;55675;49.588;8.640;2023-02-27T03:32:55;1.20;65.10
68691;DHT22;55675;49.588;8.640;2023-02-27T03:35:29;1.20;65.20
68691;DHT22;55675;49.588;8.640;2023-02-27T03:37:57;1.20;65.30
68691;DHT22;55675;49.588;8.640;2023-02-27T03:40:38;1.20;65.10
68691;DHT22;55675;49.588;8.640;2023-02-27T03:48:21;1.20;65.00
68691;DHT22;55675;49.588;8.640;2023-02-27T03:50:46;1.20;65.20
68691;DHT22;55675;49.588;8.640;2023-02-27T03:53:16;1.20;64.80
68691;DHT22;55675;49.588;8.640;2023-02-27T03:55:43;1.20;64.70
68691;DHT22;55675;49.588;8.640;2023-02-27T03:58:09;1.20;64.80
68691;DHT22;55675;49.588;8.640;2023-02-27T04:00:34;1.30;65.00
68691;DHT22;55675;49.588;8.640;2023-02-27T04:03:00;1.20;65.20
68691;DHT22;55675;49.588;8.640;2023-02-27T04:05:26;1.20;64.90
68691;DHT22;55675;49.588;8.640;2023-02-27T04:08:05;1.20;65.60
68691;DHT22;55675;49.588;8.640;2023-02-27T04:10:49;1.30;64.80
68691;DHT22;55675;49.588;8.640;2023-02-27T04:13:26;1.30;64.80
68691;DHT22;55675;49.588;8.640;2023-02-27T04:24:09;1.20;64.50
68691;DHT22;55675;49.588;8.640;2023-02-27T04:29:04;1.30;64.20
68691;DHT22;55675;49.588;8.640;2023-02-27T04:31:36;1.20;64.40
68691;DHT22;55675;49.588;8.640;2023-02-27T04:34:19;1.30;64.30
68691;DHT22;55675;49.588;8.640;2023-02-27T04:36:51;1.20;64.10
68691;DHT22;55675;49.588;8.640;2023-02-27T04:39:21;1.20;64.10
68691;DHT22;55675;49.588;8.640;2023-02-27T04:42:02;1.20;64.00
68691;DHT22;55675;49.588;8.640;2023-02-27T04:44:28;1.20;64.00
68691;DHT22;55675;49.588;8.640;2023-02-27T04:46:55;1.20;64.10
68691;DHT22;55675;49.588;8.640;2023-02-27T04:49:30;1.20;63.90
68691;DHT22;55675;49.588;8.640;2023-02-27T04:54:26;1.20;63.70
68691;DHT22;55675;49.588;8.640;2023-02-27T04:56:54;1.20;63.80
68691;DHT22;55675;49.588;8.640;2023-02-27T04:59:22;1.20;63.50
68691;DHT22;55675;49.588;8.640;2023-02-27T05:01:52;1.20;63.60
68691;DHT22;55675;49.588;8.640;2023-02-27T05:04:20;1.20;63.60
68691;DHT22;55675;49.588;8.640;2023-02-27T05:06:46;1.20;63.50
68691;DHT22;55675;49.588;8.640;2023-02-27T05:09:15;1.20;63.40
68691;DHT22;55675;49.588;8.640;2023-02-27T05:11:43;1.20;63.60
68691;DHT22;55675;49.588;8.640;2023-02-27T05:14:13;1.20;63.60
68691;DHT22;55675;49.588;8.640;2023-02-27T05:16:43;1.20;63.80
68691;DHT22;55675;49.588;8.640;2023-02-27T05:19:11;1.20;63.80
68691;DHT22;55675;49.588;8.640;2023-02-27T05:21:38;1.20;63.70
68691;DHT22;55675;49.588;8.640;2023-02-27T05:24:23;1.20;64.00
68691;DHT22;55675;49.588;8.640;2023-02-27T05:29:49;1.10;63.90
68691;DHT22;55675;49.588;8.640;2023-02-27T05:34:51;1.10;63.90
68691;DHT22;55675;49.588;8.640;2023-02-27T05:37:18;1.10;64.10
68691;DHT22;55675;49.588;8.640;2023-02-27T05:39:44;1.10;64.30
68691;DHT22;55675;49.588;8.640;2023-02-27T05:42:13;1.10;64.30
68691;DHT22;55675;49.588;8.640;2023-02-27T05:44:42;1.10;64.40
68691;DHT22;55675;49.588;8.640;2023-02-27T05:47:11;1.10;64.50
68691;DHT22;55675;49.588;8.640;2023-02-27T05:49:51;1.00;64.50
68691;DHT22;55675;49.588;8.640;2023-02-27T05:52:17;1.00;64.60
68691;DHT22;55675;49.588;8.640;2023-02-27T05:57:27;1.00;64.60
68691;DHT22;55675;49.588;8.640;2023-02-27T06:00:15;1.00;64.50
68691;DHT22;55675;49.588;8.640;2023-02-27T06:02:39;1.00;64.50
68691;DHT22;55675;49.588;8.640;2023-02-27T06:05:05;1.00;64.50
68691;DHT22;55675;49.588;8.640;2023-02-27T06:07:31;1.00;64.60
68691;DHT22;55675;49.588;8.640;2023-02-27T06:09:57;1.00;64.20
68691;DHT22;55675;49.588;8.640;2023-02-27T06:12:23;1.00;64.40
68691;DHT22;55675;49.588;8.640;2023-02-27T06:14:48;1.00;64.40
68691;DHT22;55675;49.588;8.640;2023-02-27T06:17:14;1.00;64.40
68691;DHT22;55675;49.588;8.640;2023-02-27T06:19:39;1.00;64.00
68691;DHT22;55675;49.588;8.640;2023-02-27T06:22:05;1.00;63.90
68691;DHT22;55675;49.588;8.640;2023-02-27T06:24:30;1.00;63.90
68691;DHT22;55675;49.588;8.640;2023-02-27T06:26:55;1.00;64.00
68691;DHT22;55675;49.588;8.640;2023-02-27T06:29:21;1.00;64.10
68691;DHT22;55675;49.588;8.640;2023-02-27T06:31:46;1.00;64.20
68691;DHT22;55675;49.588;8.640;2023-02-27T06:34:12;1.00;64.10
68691;DHT22;55675;49.588;8.640;2023-02-27T06:36:37;1.10;64.20
68691;DHT22;55675;49.588;8.640;2023-02-27T06:39:02;1.10;64.10
68691;DHT22;55675;49.588;8.640;2023-02-27T06:41:29;1.10;64.20
68691;DHT22;55675;49.588;8.640;2023-02-27T06:43:54;1.10;63.90
68691;DHT22;55675;49.588;8.640;2023-02-27T06:46:20;1.10;63.90
68691;DHT22;55675;49.588;8.640;2023-02-27T06:48:46;1.10;63.70
68691;DHT22;55675;49.588;8.640;2023-02-27T06:51:11;1.20;63.80
68691;DHT22;55675;49.588;8.640;2023-02-27T06:53:37;1.20;64.00
68691;DHT22;55675;49.588;8.640;2023-02-27T06:56:02;1.30;63.50
68691;DHT22;55675;49.588;8.640;2023-02-27T06:58:28;1.30;63.60
68691;DHT22;55675;49.588;8.640;2023-02-27T07:00:53;1.40;63.30
68691;DHT22;55675;49.588;8.640;2023-02-27T07:03:19;1.40;62.90
68691;DHT22;55675;49.588;8.640;2023-02-27T07:05:44;1.50;63.00
68691;DHT22;55675;49.588;8.640;2023-02-27T07:08:10;1.60;62.80
68691;DHT22;55675;49.588;8.640;2023-02-27T07:10:35;1.60;62.80
68691;DHT22;55675;49.588;8.640;2023-02-27T07:13:01;1.60;62.50
68691;DHT22;55675;49.588;8.640;2023-02-27T07:15:27;1.70;62.30
68691;DHT22;55675;49.588;8.640;2023-02-27T07:17:53;1.80;62.30
68691;DHT22;55675;49.588;8.640;2023-02-27T07:20:18;1.80;61.90
68691;DHT22;55675;49.588;8.640;2023-02-27T07:22:44;1.90;61.90
68691;DHT22;55675;49.588;8.640;2023-02-27T07:25:10;1.90;61.90
68691;DHT22;55675;49.588;8.640;2023-02-27T07:27:35;2.00;61.60
68691;DHT22;55675;49.588;8.640;2023-02-27T07:30:01;2.10;61.50
68691;DHT22;55675;49.588;8.640;2023-02-27T07:32:26;2.20;60.80
68691;DHT22;55675;49.588;8.640;2023-02-27T07:34:52;2.20;60.70
68691;DHT22;55675;49.588;8.640;2023-02-27T07:37:17;2.30;60.70
68691;DHT22;55675;49.588;8.640;2023-02-27T07:39:43;2.40;60.90
68691;DHT22;55675;49.588;8.640;2023-02-27T07:42:09;2.50;60.50
68691;DHT22;55675;49.588;8.640;2023-02-27T07:44:34;2.50;60.50
68691;DHT22;55675;49.588;8.640;2023-02-27T07:47:00;2.60;60.50
68691;DHT22;55675;49.588;8.640;2023-02-27T07:49:26;2.70;60.10
68691;DHT22;55675;49.588;8.640;2023-02-27T07:51:51;2.80;60.00
68691;DHT22;55675;49.588;8.640;2023-02-27T07:54:17;2.80;59.90
68691;DHT22;55675;49.588;8.640;2023-02-27T07:56:42;2.90;58.90
68691;DHT22;55675;49.588;8.640;2023-02-27T07:59:07;2.90;59.10
68691;DHT22;55675;49.588;8.640;2023-02-27T08:01:33;2.90;58.60
68691;DHT22;55675;49.588;8.640;2023-02-27T08:03:58;3.00;58.20
68691;DHT22;55675;49.588;8.640;2023-02-27T08:06:24;3.00;58.50
68691;DHT22;55675;49.588;8.640;2023-02-27T08:08:50;3.10;58.60
68691;DHT22;55675;49.588;8.640;2023-02-27T08:11:16;3.20;58.60
68691;DHT22;55675;49.588;8.640;2023-02-27T08:13:42;3.20;59.00
68691;DHT22;55675;49.588;8.640;2023-02-27T08:16:09;3.30;59.00
68691;DHT22;55675;49.588;8.640;2023-02-27T08:18:35;3.40;58.70
68691;DHT22;55675;49.588;8.640;2023-02-27T08:21:00;3.40;57.70
68691;DHT22;55675;49.588;8.640;2023-02-27T08:23:29;3.40;57.30
68691;DHT22;55675;49.588;8.640;2023-02-27T08:25:54;3.50;57.80
68691;DHT22;55675;49.588;8.640;2023-02-27T08:28:21;3.50;58.10
68691;DHT22;55675;49.588;8.640;2023-02-27T08:30:47;3.60;57.50
68691;DHT22;55675;49.588;8.640;2023-02-27T08:33:13;3.60;57.00
68691;DHT22;55675;49.588;8.640;2023-02-27T08:35:38;3.60;56.80
68691;DHT22;55675;49.588;8.640;2023-02-27T08:38:04;3.70;56.40
68691;DHT22;55675;49.588;8.640;2023-02-27T08:40:29;3.80;56.90
68691;DHT22;55675;49.588;8.640;2023-02-27T08:42:55;3.80;56.90
68691;DHT22;55675;49.588;8.640;2023-02-27T08:45:20;3.90;56.50
68691;DHT22;55675;49.588;8.640;2023-02-27T08:47:46;4.00;56.50
68691;DHT22;55675;49.588;8.640;2023-02-27T08:50:11;4.10;56.50
68691;DHT22;55675;49.588;8.640;2023-02-27T08:52:37;4.10;55.90
68691;DHT22;55675;49.588;8.640;2023-02-27T08:55:02;4.20;55.20
68691;DHT22;55675;49.588;8.640;2023-02-27T08:57:27;4.20;55.80
68691;DHT22;55675;49.588;8.640;2023-02-27T08:59:53;4.40;55.00
68691;DHT22;55675;49.588;8.640;2023-02-27T09:02:18;4.40;55.20
68691;DHT22;55675;49.588;8.640;2023-02-27T09:04:47;4.40;54.50
68691;DHT22;55675;49.588;8.640;2023-02-27T09:07:13;4.50;54.10
68691;DHT22;55675;49.588;8.640;2023-02-27T09:09:38;4.50;53.80
68691;DHT22;55675;49.588;8.640;2023-02-27T09:12:04;4.50;53.20
68691;DHT22;55675;49.588;8.640;2023-02-27T09:14:29;4.50;52.70
68691;DHT22;55675;49.588;8.640;2023-02-27T09:16:54;4.50;52.90
68691;DHT22;55675;49.588;8.640;2023-02-27T09:19:20;4.50;53.00
68691;DHT22;55675;49.588;8.640;2023-02-27T09:21:45;4.60;53.10
68691;DHT22;55675;49.588;8.640;2023-02-27T09:24:11;4.60;53.10
68691;DHT22;55675;49.588;8.640;2023-02-27T09:26:36;4.70;53.10
68691;DHT22;55675;49.588;8.640;2023-02-27T09:29:02;4.80;52.70
68691;DHT22;55675;49.588;8.640;2023-02-27T09:31:27;4.90;52.70
68691;DHT22;55675;49.588;8.640;2023-02-27T09:33:54;4.90;52.10
68691;DHT22;55675;49.588;8.640;2023-02-27T09:36:21;4.90;51.60
68691;DHT22;55675;49.588;8.640;2023-02-27T09:38:47;4.90;51.60
68691;DHT22;55675;49.588;8.640;2023-02-27T09:41:22;5.00;52.20
68691;DHT22;55675;49.588;8.640;2023-02-27T09:43:52;5.10;52.40
68691;DHT22;55675;49.588;8.640;2023-02-27T09:46:18;5.10;51.40
68691;DHT22;55675;49.588;8.640;2023-02-27T09:48:46;5.10;51.40
68691;DHT22;55675;49.588;8.640;2023-02-27T09:51:14;5.10;51.00
68691;DHT22;55675;49.588;8.640;2023-02-27T09:53:40;5.10;50.70
68691;DHT22;55675;49.588;8.640;2023-02-27T10:01:04;5.10;50.40
68691;DHT22;55675;49.588;8.640;2023-02-27T10:03:39;5.10;50.60
68691;DHT22;55675;49.588;8.640;2023-02-27T10:11:25;5.20;51.00
68691;DHT22;55675;49.588;8.640;2023-02-27T10:14:04;5.20;50.70
68691;DHT22;55675;49.588;8.640;2023-02-27T10:16:32;5.30;50.40
68691;DHT22;55675;49.588;8.640;2023-02-27T10:19:02;5.40;50.80
68691;DHT22;55675;49.588;8.640;2023-02-27T10:21:30;5.40;49.90
68691;DHT22;55675;49.588;8.640;2023-02-27T10:24:03;5.50;50.10
68691;DHT22;55675;49.588;8.640;2023-02-27T10:26:39;5.50;50.10
68691;DHT22;55675;49.588;8.640;2023-02-27T10:29:13;5.60;50.50
68691;DHT22;55675;49.588;8.640;2023-02-27T10:31:39;5.70;52.20
68691;DHT22;55675;49.588;8.640;2023-02-27T10:34:05;5.80;51.10
68691;DHT22;55675;49.588;8.640;2023-02-27T10:36:31;5.90;50.60
68691;DHT22;55675;49.588;8.640;2023-02-27T10:38:58;6.00;50.40
68691;DHT22;55675;49.588;8.640;2023-02-27T10:41:25;6.10;49.30
68691;DHT22;55675;49.588;8.640;2023-02-27T10:43:51;6.20;49.60
68691;DHT22;55675;49.588;8.640;2023-02-27T10:46:22;6.20;49.60
68691;DHT22;55675;49.588;8.640;2023-02-27T10:48:48;6.30;48.90
68691;DHT22;55675;49.588;8.640;2023-02-27T10:53:46;6.40;50.00
68691;DHT22;55675;49.588;8.640;2023-02-27T10:56:13;6.50;50.00
68691;DHT22;55675;49.588;8.640;2023-02-27T10:58:39;6.60;48.70
68691;DHT22;55675;49.588;8.640;2023-02-27T11:01:06;6.70;48.40
68691;DHT22;55675;49.588;8.640;2023-02-27T11:03:33;6.70;48.20
68691;DHT22;55675;49.588;8.640;2023-02-27T11:06:01;6.80;48.30
68691;DHT22;55675;49.588;8.640;2023-02-27T11:08:29;6.90;47.60
68691;DHT22;55675;49.588;8.640;2023-02-27T11:11:02;7.00;47.40
68691;DHT22;55675;49.588;8.640;2023-02-27T11:13:29;7.10;47.70
68691;DHT22;55675;49.588;8.640;2023-02-27T11:18:30;7.40;47.10
68691;DHT22;55675;49.588;8.640;2023-02-27T11:23:58;7.40;46.60
68691;DHT22;55675;49.588;8.640;2023-02-27T11:26:25;7.40;46.40
68691;DHT22;55675;49.588;8.640;2023-02-27T11:31:28;7.50;46.80
68691;DHT22;55675;49.588;8.640;2023-02-27T11:33:55;7.50;45.80
68691;DHT22;55675;49.588;8.640;2023-02-27T11:36:21;7.50;46.00
68691;DHT22;55675;49.588;8.640;2023-02-27T11:38:51;7.50;46.80
68691;DHT22;55675;49.588;8.640;2023-02-27T11:41:17;7.60;45.70
68691;DHT22;55675;49.588;8.640;2023-02-27T11:43:47;7.70;45.40
68691;DHT22;55675;49.588;8.640;2023-02-27T11:46:18;7.70;45.00
68691;DHT22;55675;49.588;8.640;2023-02-27T11:51:18;8.00;47.00
68691;DHT22;55675;49.588;8.640;2023-02-27T11:59:02;8.20;43.70
68691;DHT22;55675;49.588;8.640;2023-02-27T12:01:30;8.20;44.60
68691;DHT22;55675;49.588;8.640;2023-02-27T12:04:08;8.30;45.30
68691;DHT22;55675;49.588;8.640;2023-02-27T12:06:37;8.40;44.90
68691;DHT22;55675;49.588;8.640;2023-02-27T12:09:06;8.40;45.10
68691;DHT22;55675;49.588;8.640;2023-02-27T12:11:43;8.50;44.80
68691;DHT22;55675;49.588;8.640;2023-02-27T12:17:13;8.80;43.50
68691;DHT22;55675;49.588;8.640;2023-02-27T12:19:41;8.80;42.70
68691;DHT22;55675;49.588;8.640;2023-02-27T12:22:12;8.80;41.60
68691;DHT22;55675;49.588;8.640;2023-02-27T12:24:56;8.60;41.90
68691;DHT22;55675;49.588;8.640;2023-02-27T12:27:24;8.60;42.00
68691;DHT22;55675;49.588;8.640;2023-02-27T12:29:53;8.40;41.50
68691;DHT22;55675;49.588;8.640;2023-02-27T12:34:49;8.50;43.30
68691;DHT22;55675;49.588;8.640;2023-02-27T12:37:25;8.60;42.60
68691;DHT22;55675;49.588;8.640;2023-02-27T12:39:51;8.70;42.20
68691;DHT22;55675;49.588;8.640;2023-02-27T12:45:21;8.90;43.50
68691;DHT22;55675;49.588;8.640;2023-02-27T12:55:53;10.20;41.90
68691;DHT22;55675;49.588;8.640;2023-02-27T12:58:31;10.60;42.40
68691;DHT22;55675;49.588;8.640;2023-02-27T13:01:00;10.90;40.60
68691;DHT22;55675;49.588;8.640;2023-02-27T13:05:59;11.20;40.00
68691;DHT22;55675;49.588;8.640;2023-02-27T13:08:39;11.20;40.30
68691;DHT22;55675;49.588;8.640;2023-02-27T13:11:21;11.30;39.50
68691;DHT22;55675;49.588;8.640;2023-02-27T13:13:48;11.30;38.40
68691;DHT22;55675;49.588;8.640;2023-02-27T13:16:20;11.20;38.30
68691;DHT22;55675;49.588;8.640;2023-02-27T13:18:48;11.10;36.70
68691;DHT22;55675;49.588;8.640;2023-02-27T13:26:22;10.70;37.90
68691;DHT22;55675;49.588;8.640;2023-02-27T13:28:49;10.60;38.50
68691;DHT22;55675;49.588;8.640;2023-02-27T13:33:47;10.40;38.20
68691;DHT22;55675;49.588;8.640;2023-02-27T13:38:47;10.40;38.00
68691;DHT22;55675;49.588;8.640;2023-02-27T13:43:45;13.50;37.90
68691;DHT22;55675;49.588;8.640;2023-02-27T13:46:26;17.00;37.10
68691;DHT22;55675;49.588;8.640;2023-02-27T13:51:46;21.90;26.30
68691;DHT22;55675;49.588;8.640;2023-02-27T14:02:51;23.70;20.10
68691;DHT22;55675;49.588;8.640;2023-02-27T14:04:53;24.50;20.40
68691;DHT22;55675;49.588;8.640;2023-02-27T14:07:20;25.80;19.40
68691;DHT22;55675;49.588;8.640;2023-02-27T14:09:52;25.00;19.20
68691;DHT22;55675;49.588;8.640;2023-02-27T14:14:51;22.50;19.70
68691;DHT22;55675;49.588;8.640;2023-02-27T14:17:38;21.60;19.70
68691;DHT22;55675;49.588;8.640;2023-02-27T14:25:15;16.00;23.90
68691;DHT22;55675;49.588;8.640;2023-02-27T14:30:07;13.50;26.30
68691;DHT22;55675;49.588;8.640;2023-02-27T14:32:46;12.70;27.90
68691;DHT22;55675;49.588;8.640;2023-02-27T14:35:13;12.00;28.90
68691;DHT22;55675;49.588;8.640;2023-02-27T14:37:39;11.50;29.50
68691;DHT22;55675;49.588;8.640;2023-02-27T14:40:05;11.10;30.20
68691;DHT22;55675;49.588;8.640;2023-02-27T14:45:12;10.80;33.10
68691;DHT22;55675;49.588;8.640;2023-02-27T14:47:38;11.40;32.40
68691;DHT22;55675;49.588;8.640;2023-02-27T14:50:05;11.60;32.00
68691;DHT22;55675;49.588;8.640;2023-02-27T14:52:39;11.50;31.10
68691;DHT22;55675;49.588;8.640;2023-02-27T14:57:35;11.70;31.80
68691;DHT22;55675;49.588;8.640;2023-02-27T15:00:01;13.00;30.80
68691;DHT22;55675;49.588;8.640;2023-02-27T15:02:28;14.40;29.10
68691;DHT22;55675;49.588;8.640;2023-02-27T15:07:27;17.40;27.50
68691;DHT22;55675;49.588;8.640;2023-02-27T15:09:55;19.40;25.90
68691;DHT22;55675;49.588;8.640;2023-02-27T15:12:21;20.90;24.50
68691;DHT22;55675;49.588;8.640;2023-02-27T15:14:57;22.20;22.30
68691;DHT22;55675;49.588;8.640;2023-02-27T15:17:26;23.30;20.90
68691;DHT22;55675;49.588;8.640;2023-02-27T15:19:55;23.90;18.90
68691;DHT22;55675;49.588;8.640;2023-02-27T15:22:23;24.90;19.30
68691;DHT22;55675;49.588;8.640;2023-02-27T15:24:53;26.00;18.30
68691;DHT22;55675;49.588;8.640;2023-02-27T15:27:21;27.10;17.70
68691;DHT22;55675;49.588;8.640;2023-02-27T15:29:56;27.80;16.90
68691;DHT22;55675;49.588;8.640;2023-02-27T15:32:31;28.20;16.20
68691;DHT22;55675;49.588;8.640;2023-02-27T15:35:00;28.70;15.30
68691;DHT22;55675;49.588;8.640;2023-02-27T15:37:29;28.50;15.00
68691;DHT22;55675;49.588;8.640;2023-02-27T15:39:56;28.10;15.30
68691;DHT22;55675;49.588;8.640;2023-02-27T15:42:29;27.60;14.70
68691;DHT22;55675;49.588;8.640;2023-02-27T15:44:57;25.60;14.70
68691;DHT22;55675;49.588;8.640;2023-02-27T15:47:28;23.70;16.70
68691;DHT22;55675;49.588;8.640;2023-02-27T15:52:53;23.90;17.30
68691;DHT22;55675;49.588;8.640;2023-02-27T15:55:25;24.10;16.80
68691;DHT22;55675;49.588;8.640;2023-02-27T15:57:51;22.90;16.90
68691;DHT22;55675;49.588;8.640;2023-02-27T16:00:17;21.70;18.10
68691;DHT22;55675;49.588;8.640;2023-02-27T16:02:47;21.40;18.40
68691;DHT22;55675;49.588;8.640;2023-02-27T16:05:15;21.70;18.70
68691;DHT22;55675;49.588;8.640;2023-02-27T16:07:41;22.30;18.50
68691;DHT22;55675;49.588;8.640;2023-02-27T16:10:08;22.70;18.20
68691;DHT22;55675;49.588;8.640;2023-02-27T16:12:38;22.90;17.80
68691;DHT22;55675;49.588;8.640;2023-02-27T16:20:29;22.30;17.10
68691;DHT22;55675;49.588;8.640;2023-02-27T16:23:02;21.90;17.30
68691;DHT22;55675;49.588;8.640;2023-02-27T16:25:28;21.60;17.80
68691;DHT22;55675;49.588;8.640;2023-02-27T16:27:53;21.30;18.00
68691;DHT22;55675;49.588;8.640;2023-02-27T16:30:19;21.30;18.20
68691;DHT22;55675;49.588;8.640;2023-02-27T16:32:44;21.20;17.80
68691;DHT22;55675;49.588;8.640;2023-02-27T16:35:17;20.80;18.60
68691;DHT22;55675;49.588;8.640;2023-02-27T16:37:43;20.50;18.20
68691;DHT22;55675;49.588;8.640;2023-02-27T16:40:17;19.90;18.40
68691;DHT22;55675;49.588;8.640;2023-02-27T16:42:43;19.30;18.70
68691;DHT22;55675;49.588;8.640;2023-02-27T16:45:13;18.80;19.30
68691;DHT22;55675;49.588;8.640;2023-02-27T16:47:39;18.50;19.60
68691;DHT22;55675;49.588;8.640;2023-02-27T16:50:08;17.80;19.80
68691;DHT22;55675;49.588;8.640;2023-02-27T16:52:34;16.80;20.50
68691;DHT22;55675;49.588;8.640;2023-02-27T16:54:59;15.60;22.00
68691;DHT22;55675;49.588;8.640;2023-02-27T16:57:25;14.30;22.80
68691;DHT22;55675;49.588;8.640;2023-02-27T16:59:51;13.10;24.00
68691;DHT22;55675;49.588;8.640;2023-02-27T17:02:17;12.10;25.10
68691;DHT22;55675;49.588;8.640;2023-02-27T17:04:43;11.20;25.40
68691;DHT22;55675;49.588;8.640;2023-02-27T17:07:14;10.50;25.80
68691;DHT22;55675;49.588;8.640;2023-02-27T17:09:41;9.80;27.90
68691;DHT22;55675;49.588;8.640;2023-02-27T17:12:07;9.20;28.50
68691;DHT22;55675;49.588;8.640;2023-02-27T17:14:32;8.70;29.30
68691;DHT22;55675;49.588;8.640;2023-02-27T17:16:58;8.30;29.20
68691;DHT22;55675;49.588;8.640;2023-02-27T17:19:23;7.90;30.90
68691;DHT22;55675;49.588;8.640;2023-02-27T17:21:48;7.60;31.80
68691;DHT22;55675;49.588;8.640;2023-02-27T17:24:15;7.40;33.10
68691;DHT22;55675;49.588;8.640;2023-02-27T17:26:40;7.20;32.30
68691;DHT22;55675;49.588;8.640;2023-02-27T17:29:06;7.00;31.90
68691;DHT22;55675;49.588;8.640;2023-02-27T17:31:34;6.70;33.80
68691;DHT22;55675;49.588;8.640;2023-02-27T17:33:59;6.60;33.40
68691;DHT22;55675;49.588;8.640;2023-02-27T17:36:27;6.50;34.60
68691;DHT22;55675;49.588;8.640;2023-02-27T17:38:57;6.30;34.70
68691;DHT22;55675;49.588;8.640;2023-02-27T17:41:24;6.20;35.90
68691;DHT22;55675;49.588;8.640;2023-02-27T17:43:54;6.10;35.90
68691;DHT22;55675;49.588;8.640;2023-02-27T17:46:21;5.90;37.10
68691;DHT22;55675;49.588;8.640;2023-02-27T17:48:47;5.80;37.90
68691;DHT22;55675;49.588;8.640;2023-02-27T17:51:13;5.70;38.70
68691;DHT22;55675;49.588;8.640;2023-02-27T17:53:39;5.60;39.10
68691;DHT22;55675;49.588;8.640;2023-02-27T17:56:04;5.50;38.50
68691;DHT22;55675;49.588;8.640;2023-02-27T17:58:30;5.40;39.50
68691;DHT22;55675;49.588;8.640;2023-02-27T18:01:02;5.30;39.30
68691;DHT22;55675;49.588;8.640;2023-02-27T18:03:28;5.30;39.10
68691;DHT22;55675;49.588;8.640;2023-02-27T18:05:53;5.20;39.10
68691;DHT22;55675;49.588;8.640;2023-02-27T18:08:19;5.10;39.00
68691;DHT22;55675;49.588;8.640;2023-02-27T18:10:45;5.10;40.60
68691;DHT22;55675;49.588;8.640;2023-02-27T18:13:10;5.00;40.70
68691;DHT22;55675;49.588;8.640;2023-02-27T18:15:36;5.00;40.60